createdAt,value
2018-12-17T00:00:11.342Z,0.90
2018-12-17T00:02:38.890Z,0.90
2018-12-17T00:05:06.505Z,1.00
2018-12-17T00:07:34.074Z,0.90
2018-12-17T00:10:02.230Z,0.90
2018-12-17T00:12:29.827Z,0.90
2018-12-17T00:14:57.371Z,0.90
2018-12-17T00:17:24.907Z,1.00
2018-12-17T00:19:52.533Z,1.00
2018-12-17T00:22:20.075Z,1.00
2018-12-17T00:24:47.635Z,1.00
2018-12-17T00:27:15.221Z,0.90
2018-12-17T00:29:44.170Z,0.90
2018-12-17T00:32:11.711Z,0.90
2018-12-17T00:34:39.291Z,0.90
2018-12-17T00:37:06.849Z,0.90
2018-12-17T00:39:34.395Z,0.90
2018-12-17T00:42:01.995Z,0.90
2018-12-17T00:44:29.526Z,1.00
2018-12-17T00:46:57.393Z,1.00
2018-12-17T00:49:24.967Z,1.00
2018-12-17T00:51:52.514Z,1.00
2018-12-17T00:54:20.099Z,1.00
2018-12-17T00:56:47.653Z,1.00
2018-12-17T00:59:15.251Z,1.10
2018-12-17T01:01:42.963Z,1.10
2018-12-17T01:04:10.507Z,1.00
2018-12-17T01:06:38.051Z,1.00
2018-12-17T01:09:06.387Z,1.00
2018-12-17T01:11:33.933Z,1.00
2018-12-17T01:14:01.474Z,1.00
2018-12-17T01:16:29.160Z,1.00
2018-12-17T01:18:56.712Z,1.00
2018-12-17T01:21:24.667Z,1.10
2018-12-17T01:23:52.427Z,1.10
2018-12-17T01:26:20.679Z,1.10
2018-12-17T01:28:48.417Z,1.10
2018-12-17T01:31:16.067Z,1.20
2018-12-17T01:33:43.609Z,1.20
2018-12-17T01:36:11.155Z,1.20
2018-12-17T01:38:38.743Z,1.20
2018-12-17T01:41:06.286Z,1.20
2018-12-17T01:43:33.828Z,1.30
2018-12-17T01:46:01.410Z,1.20
2018-12-17T01:48:28.959Z,1.30
2018-12-17T01:50:56.500Z,1.30
2018-12-17T01:53:24.063Z,1.30
2018-12-17T01:55:51.658Z,1.30
2018-12-17T01:58:19.196Z,1.20
2018-12-17T02:00:46.735Z,1.10
2018-12-17T02:03:14.350Z,1.10
2018-12-17T02:05:41.893Z,1.10
2018-12-17T02:08:09.431Z,1.00
2018-12-17T02:10:37.014Z,1.00
2018-12-17T02:13:04.555Z,1.00
2018-12-17T02:15:32.099Z,1.00
2018-12-17T02:17:59.689Z,1.00
2018-12-17T02:20:27.219Z,1.00
2018-12-17T02:22:54.774Z,1.00
2018-12-17T02:25:22.365Z,1.00
2018-12-17T02:27:49.915Z,1.10
2018-12-17T02:30:17.466Z,1.10
2018-12-17T02:32:45.061Z,1.10
2018-12-17T02:35:12.672Z,1.20
2018-12-17T02:37:40.215Z,1.20
2018-12-17T02:40:07.868Z,1.20
2018-12-17T02:42:35.419Z,1.30
2018-12-17T02:45:03.020Z,1.30
2018-12-17T02:47:30.587Z,1.20
2018-12-17T02:49:58.136Z,1.20
2018-12-17T02:52:25.733Z,1.20
2018-12-17T02:54:54.196Z,1.10
2018-12-17T02:57:21.742Z,1.10
2018-12-17T02:59:49.328Z,1.10
2018-12-17T03:02:16.874Z,1.10
2018-12-17T03:04:44.414Z,1.20
2018-12-17T03:07:11.994Z,1.20
2018-12-17T03:09:39.540Z,1.20
2018-12-17T03:12:07.089Z,1.20
2018-12-17T03:14:34.671Z,1.20
2018-12-17T03:17:02.215Z,1.20
2018-12-17T03:19:29.755Z,1.30
2018-12-17T03:21:57.335Z,1.30
2018-12-17T03:24:24.866Z,1.30
2018-12-17T03:26:52.633Z,1.30
2018-12-17T03:29:20.183Z,1.20
2018-12-17T03:31:47.724Z,1.20
2018-12-17T03:34:15.310Z,1.20
2018-12-17T03:36:42.853Z,1.20
2018-12-17T03:39:10.407Z,1.20
2018-12-17T03:41:38.059Z,1.20
2018-12-17T03:44:05.600Z,1.20
2018-12-17T03:46:33.142Z,1.30
2018-12-17T03:49:00.726Z,1.30
2018-12-17T03:51:28.272Z,1.30
2018-12-17T03:53:55.868Z,1.30
2018-12-17T03:56:23.447Z,1.30
2018-12-17T03:58:51.051Z,1.30
2018-12-17T04:01:18.628Z,1.30
2018-12-17T04:03:46.660Z,1.30
2018-12-17T04:06:14.259Z,1.30
2018-12-17T04:08:41.815Z,1.20
2018-12-17T04:11:09.723Z,1.20
2018-12-17T04:13:37.303Z,1.20
2018-12-17T04:16:04.854Z,1.20
2018-12-17T04:18:32.509Z,1.20
2018-12-17T04:21:00.078Z,1.20
2018-12-17T04:23:27.655Z,1.20
2018-12-17T04:25:55.256Z,1.20
2018-12-17T04:28:22.930Z,1.20
2018-12-17T04:30:50.502Z,1.30
2018-12-17T04:33:18.096Z,1.30
2018-12-17T04:35:45.648Z,1.40
2018-12-17T04:38:13.191Z,1.40
2018-12-17T04:40:40.781Z,1.40
2018-12-17T04:43:08.343Z,1.40
2018-12-17T04:45:35.884Z,1.40
2018-12-17T04:48:03.489Z,1.30
2018-12-17T04:50:31.912Z,1.30
2018-12-17T04:52:59.627Z,1.30
2018-12-17T04:55:27.268Z,1.30
2018-12-17T04:57:56.124Z,1.30
2018-12-17T05:00:23.727Z,1.40
2018-12-17T05:02:51.313Z,1.30
2018-12-17T05:05:18.935Z,1.30
2018-12-17T05:07:46.631Z,1.30
2018-12-17T05:10:14.384Z,1.30
2018-12-17T05:12:42.079Z,1.40
2018-12-17T05:15:09.717Z,1.30
2018-12-17T05:17:37.349Z,1.20
2018-12-17T05:20:05.104Z,1.20
2018-12-17T05:22:32.759Z,1.30
2018-12-17T05:25:00.499Z,1.30
2018-12-17T05:27:28.048Z,1.30
2018-12-17T05:29:56.003Z,1.20
2018-12-17T05:32:23.599Z,1.20
2018-12-17T05:34:51.179Z,1.20
2018-12-17T05:37:18.761Z,1.30
2018-12-17T05:39:46.417Z,1.30
2018-12-17T05:42:13.971Z,1.30
2018-12-17T05:44:41.538Z,1.30
2018-12-17T05:47:09.156Z,1.30
2018-12-17T05:49:36.704Z,1.30
2018-12-17T05:52:04.747Z,1.40
2018-12-17T05:54:32.346Z,1.50
2018-12-17T05:56:59.891Z,1.50
2018-12-17T05:59:28.703Z,1.50
2018-12-17T06:01:56.579Z,1.50
2018-12-17T06:04:24.124Z,1.50
2018-12-17T06:06:52.587Z,1.40
2018-12-17T06:09:20.444Z,1.30
2018-12-17T06:11:48.151Z,1.30
2018-12-17T06:14:15.710Z,1.40
2018-12-17T06:16:43.324Z,1.40
2018-12-17T06:19:10.870Z,1.50
2018-12-17T06:21:38.414Z,1.50
2018-12-17T06:24:06.083Z,1.40
2018-12-17T06:26:33.718Z,1.50
2018-12-17T06:29:01.271Z,1.50
2018-12-17T06:31:28.879Z,1.40
2018-12-17T06:33:57.087Z,1.50
2018-12-17T06:36:24.640Z,1.50
2018-12-17T06:38:52.238Z,1.50
2018-12-17T06:41:19.786Z,1.50
2018-12-17T06:43:47.334Z,1.50
2018-12-17T06:46:14.993Z,1.50
2018-12-17T06:48:42.545Z,1.40
2018-12-17T06:51:10.101Z,1.40
2018-12-17T06:53:37.687Z,1.50
2018-12-17T06:56:05.246Z,1.50
2018-12-17T06:58:33.059Z,1.50
2018-12-17T07:01:00.683Z,1.50
2018-12-17T07:03:28.222Z,1.50
2018-12-17T07:05:55.766Z,1.50
2018-12-17T07:08:23.490Z,1.50
2018-12-17T07:10:51.039Z,1.50
2018-12-17T07:13:18.601Z,1.50
2018-12-17T07:15:46.186Z,1.50
2018-12-17T07:18:13.739Z,1.50
2018-12-17T07:20:41.279Z,1.50
2018-12-17T07:23:08.871Z,1.60
2018-12-17T07:25:36.406Z,1.60
2018-12-17T07:28:03.956Z,1.60
2018-12-17T07:30:31.543Z,1.70
2018-12-17T07:32:59.086Z,1.70
2018-12-17T07:35:26.639Z,1.70
2018-12-17T07:37:54.226Z,1.70
2018-12-17T07:40:21.772Z,1.70
2018-12-17T07:42:49.331Z,1.60
2018-12-17T07:45:17.018Z,1.60
2018-12-17T07:47:44.579Z,1.60
2018-12-17T07:50:12.229Z,1.60
2018-12-17T07:52:39.819Z,1.60
2018-12-17T07:55:07.482Z,1.60
2018-12-17T07:57:35.027Z,1.60
2018-12-17T08:00:03.164Z,1.60
2018-12-17T08:02:30.736Z,1.60
2018-12-17T08:04:58.559Z,1.70
2018-12-17T08:07:26.155Z,1.70
2018-12-17T08:09:53.707Z,1.70
2018-12-17T08:12:21.257Z,1.70
2018-12-17T08:14:48.852Z,1.80
2018-12-17T08:17:16.473Z,1.80
2018-12-17T08:19:44.087Z,1.80
2018-12-17T08:22:11.686Z,1.80
2018-12-17T08:24:39.230Z,1.90
2018-12-17T08:27:06.770Z,1.80
2018-12-17T08:29:34.364Z,1.80
2018-12-17T08:32:01.917Z,1.70
2018-12-17T08:34:29.459Z,1.70
2018-12-17T08:36:57.054Z,1.70
2018-12-17T08:39:24.649Z,1.70
2018-12-17T08:41:52.287Z,1.70
2018-12-17T08:44:19.886Z,1.70
2018-12-17T08:46:47.440Z,1.80
2018-12-17T08:49:14.990Z,1.90
2018-12-17T08:51:42.577Z,2.00
2018-12-17T08:54:10.119Z,2.10
2018-12-17T08:56:37.679Z,2.10
2018-12-17T08:59:05.267Z,2.10
2018-12-17T09:01:32.829Z,2.10
2018-12-17T09:04:00.381Z,2.20
2018-12-17T09:06:27.973Z,2.20
2018-12-17T09:08:55.532Z,2.20
2018-12-17T09:11:23.080Z,2.20
2018-12-17T09:13:50.668Z,2.20
2018-12-17T09:16:18.233Z,2.30
2018-12-17T09:18:45.780Z,2.30
2018-12-17T09:21:13.441Z,2.20
2018-12-17T09:23:40.987Z,2.20
2018-12-17T09:26:08.544Z,2.20
2018-12-17T09:28:36.130Z,2.20
2018-12-17T09:31:03.740Z,2.20
2018-12-17T09:33:31.300Z,2.20
2018-12-17T09:35:59.838Z,2.30
2018-12-17T09:38:27.522Z,2.30
2018-12-17T09:40:55.065Z,2.30
2018-12-17T09:43:22.651Z,2.30
2018-12-17T09:45:50.207Z,2.40
2018-12-17T09:48:17.826Z,2.40
2018-12-17T09:50:45.419Z,2.50
2018-12-17T09:53:12.972Z,2.50
2018-12-17T09:55:40.518Z,2.50
2018-12-17T09:58:08.119Z,2.60
2018-12-17T10:00:35.668Z,2.60
2018-12-17T10:03:03.228Z,2.60
2018-12-17T10:05:30.821Z,2.60
2018-12-17T10:07:58.371Z,2.60
2018-12-17T10:10:25.921Z,2.70
2018-12-17T10:12:53.506Z,2.70
2018-12-17T10:15:21.162Z,2.70
2018-12-17T10:17:48.718Z,2.70
2018-12-17T10:20:16.302Z,2.70
2018-12-17T10:22:43.851Z,2.60
2018-12-17T10:25:11.399Z,2.60
2018-12-17T10:27:38.995Z,2.60
2018-12-17T10:30:07.561Z,2.60
2018-12-17T10:32:35.113Z,2.60
2018-12-17T10:35:02.778Z,2.60
2018-12-17T10:37:30.335Z,2.60
2018-12-17T10:39:57.886Z,2.60
2018-12-17T10:42:25.477Z,2.60
2018-12-17T10:44:53.035Z,2.70
2018-12-17T10:47:20.585Z,2.70
2018-12-17T10:49:48.181Z,2.70
2018-12-17T10:52:15.724Z,2.60
2018-12-17T10:54:43.262Z,2.60
2018-12-17T10:57:10.847Z,2.60
2018-12-17T10:59:38.392Z,2.60
2018-12-17T11:02:08.482Z,2.60
2018-12-17T11:04:38.050Z,2.70
2018-12-17T11:07:05.599Z,2.70
2018-12-17T11:09:33.242Z,2.70
2018-12-17T11:12:00.832Z,2.70
2018-12-17T11:14:28.379Z,2.70
2018-12-17T11:16:55.937Z,2.70
2018-12-17T11:19:23.531Z,2.70
2018-12-17T11:21:51.161Z,2.70
2018-12-17T11:24:18.703Z,2.70
2018-12-17T11:26:46.307Z,2.80
2018-12-17T11:29:13.858Z,2.80
2018-12-17T11:31:41.416Z,2.90
2018-12-17T11:34:09.012Z,2.80
2018-12-17T11:36:36.562Z,2.80
2018-12-17T11:39:07.107Z,2.80
2018-12-17T11:41:35.099Z,2.80
2018-12-17T11:44:03.640Z,2.90
2018-12-17T11:46:31.189Z,2.90
2018-12-17T11:48:58.797Z,2.90
2018-12-17T11:51:26.348Z,2.90
2018-12-17T11:53:53.892Z,2.90
2018-12-17T11:56:25.420Z,2.90
2018-12-17T11:58:52.992Z,2.80
2018-12-17T12:01:20.548Z,2.80
2018-12-17T12:03:48.135Z,2.80
2018-12-17T12:06:15.675Z,2.80
2018-12-17T12:08:43.227Z,2.80
2018-12-17T12:11:10.823Z,2.90
2018-12-17T12:13:38.382Z,2.80
2018-12-17T12:16:05.936Z,2.80
2018-12-17T12:18:34.109Z,2.80
2018-12-17T12:21:01.660Z,2.90
2018-12-17T12:23:29.219Z,3.00
2018-12-17T12:25:56.826Z,3.00
2018-12-17T12:28:24.367Z,3.00
2018-12-17T12:30:51.907Z,3.00
2018-12-17T12:33:19.503Z,2.90
2018-12-17T12:35:47.135Z,2.90
2018-12-17T12:38:14.730Z,2.90
2018-12-17T12:40:42.325Z,2.90
2018-12-17T12:43:09.875Z,2.80
2018-12-17T12:45:37.421Z,2.90
2018-12-17T12:48:05.067Z,2.90
2018-12-17T12:50:32.625Z,2.90
2018-12-17T12:53:00.195Z,2.80
2018-12-17T12:55:27.740Z,2.80
2018-12-17T12:57:55.335Z,2.90
2018-12-17T13:00:22.889Z,2.90
2018-12-17T13:02:50.439Z,2.90
2018-12-17T13:05:18.097Z,3.00
2018-12-17T13:07:45.647Z,3.00
2018-12-17T13:10:13.330Z,3.00
2018-12-17T13:12:41.018Z,3.00
2018-12-17T13:15:08.696Z,3.10
2018-12-17T13:17:36.254Z,3.10
2018-12-17T13:20:04.563Z,3.10
2018-12-17T13:22:32.110Z,3.10
2018-12-17T13:24:59.657Z,3.10
2018-12-17T13:27:27.243Z,3.00
2018-12-17T13:29:54.916Z,3.10
2018-12-17T13:32:22.488Z,3.10
2018-12-17T13:34:50.127Z,3.10
2018-12-17T13:37:17.779Z,3.10
2018-12-17T13:39:45.343Z,3.10
2018-12-17T13:42:12.917Z,3.10
2018-12-17T13:44:40.477Z,3.10
2018-12-17T13:47:08.067Z,3.10
2018-12-17T13:49:35.612Z,3.10
2018-12-17T13:52:08.772Z,3.20
2018-12-17T13:54:36.327Z,3.10
2018-12-17T13:57:03.886Z,3.10
2018-12-17T13:59:31.497Z,3.10
2018-12-17T14:01:59.048Z,3.10
2018-12-17T14:04:26.639Z,3.10
2018-12-17T14:06:54.232Z,3.10
2018-12-17T14:09:21.807Z,3.10
2018-12-17T14:11:49.359Z,3.10
2018-12-17T14:14:16.943Z,3.00
2018-12-17T14:16:50.163Z,3.00
2018-12-17T14:19:19.723Z,3.00
2018-12-17T14:21:52.989Z,3.10
2018-12-17T14:24:20.678Z,3.10
2018-12-17T14:26:48.292Z,3.10
2018-12-17T14:29:15.912Z,3.10
2018-12-17T14:31:43.568Z,3.10
2018-12-17T14:34:11.109Z,3.10
2018-12-17T14:36:38.686Z,3.10
2018-12-17T14:39:08.202Z,3.10
2018-12-17T14:41:35.752Z,3.00
2018-12-17T14:44:09.055Z,3.10
2018-12-17T14:46:42.440Z,3.30
2018-12-17T14:49:10.036Z,3.40
2018-12-17T14:51:37.591Z,3.50
2018-12-17T14:54:05.138Z,3.50
2018-12-17T14:56:32.826Z,3.60
2018-12-17T14:59:00.565Z,3.60
2018-12-17T15:01:28.230Z,3.50
2018-12-17T15:03:55.772Z,3.40
2018-12-17T15:06:23.347Z,3.30
2018-12-17T15:08:50.941Z,3.20
2018-12-17T15:11:18.574Z,3.20
2018-12-17T15:13:46.219Z,3.10
2018-12-17T15:16:13.887Z,3.10
2018-12-17T15:18:41.520Z,3.10
2018-12-17T15:21:09.072Z,3.10
2018-12-17T15:23:37.450Z,3.10
2018-12-17T15:26:05.320Z,3.10
2018-12-17T15:28:32.890Z,3.10
2018-12-17T15:31:00.520Z,3.10
2018-12-17T15:33:28.131Z,3.10
2018-12-17T15:35:55.766Z,3.10
2018-12-17T15:38:23.371Z,3.10
2018-12-17T15:40:50.965Z,3.10
2018-12-17T15:43:18.762Z,3.10
2018-12-17T15:45:46.321Z,3.10
2018-12-17T15:48:14.640Z,3.10
2018-12-17T15:50:42.556Z,3.20
2018-12-17T15:53:10.167Z,3.20
2018-12-17T15:55:37.947Z,3.10
2018-12-17T15:58:05.556Z,3.20
2018-12-17T16:00:33.232Z,3.20
2018-12-17T16:03:00.785Z,3.10
2018-12-17T16:05:28.542Z,3.10
2018-12-17T16:07:56.186Z,3.10
2018-12-17T16:10:23.758Z,3.10
2018-12-17T16:12:51.337Z,3.10
2018-12-17T16:15:18.914Z,3.10
2018-12-17T16:17:46.466Z,3.10
2018-12-17T16:20:14.072Z,3.10
2018-12-17T16:22:41.610Z,3.10
2018-12-17T16:25:09.214Z,3.10
2018-12-17T16:27:36.805Z,3.10
2018-12-17T16:30:07.207Z,3.10
2018-12-17T16:32:34.786Z,3.10
2018-12-17T16:35:02.446Z,3.10
2018-12-17T16:37:30.055Z,3.10
2018-12-17T16:39:57.614Z,3.10
2018-12-17T16:42:25.299Z,3.00
2018-12-17T16:44:52.891Z,3.10
2018-12-17T16:47:20.471Z,3.10
2018-12-17T16:49:48.144Z,3.10
2018-12-17T16:52:15.698Z,3.00
2018-12-17T16:54:43.303Z,3.00
2018-12-17T16:57:10.909Z,3.00
2018-12-17T16:59:39.092Z,3.00
2018-12-17T17:02:06.643Z,3.00
2018-12-17T17:04:34.267Z,3.00
2018-12-17T17:07:01.916Z,2.90
2018-12-17T17:09:29.520Z,3.00
2018-12-17T17:11:57.190Z,3.00
2018-12-17T17:14:24.768Z,3.00
2018-12-17T17:16:52.505Z,3.00
2018-12-17T17:19:20.075Z,3.00
2018-12-17T17:21:47.839Z,3.00
2018-12-17T17:24:15.487Z,3.00
2018-12-17T17:26:43.048Z,3.00
2018-12-17T17:29:10.737Z,3.00
2018-12-17T17:31:38.461Z,3.00
2018-12-17T17:34:06.024Z,3.10
2018-12-17T17:36:33.755Z,3.10
2018-12-17T17:39:01.339Z,3.10
2018-12-17T17:41:28.884Z,3.10
2018-12-17T17:43:56.499Z,3.10
2018-12-17T17:46:24.881Z,3.10
2018-12-17T17:48:52.422Z,3.10
2018-12-17T17:51:20.032Z,3.10
2018-12-17T17:53:47.835Z,3.00
2018-12-17T17:56:15.398Z,3.00
2018-12-17T17:58:42.986Z,3.00
2018-12-17T18:01:10.541Z,3.00
2018-12-17T18:03:38.107Z,3.00
2018-12-17T18:06:05.707Z,3.00
2018-12-17T18:08:33.397Z,3.00
2018-12-17T18:11:01.880Z,3.00
2018-12-17T18:13:29.458Z,3.00
2018-12-17T18:15:57.067Z,3.00
2018-12-17T18:18:24.781Z,3.00
2018-12-17T18:20:52.336Z,3.00
2018-12-17T18:23:19.949Z,3.00
2018-12-17T18:25:47.535Z,3.00
2018-12-17T18:28:15.091Z,3.00
2018-12-17T18:30:43.511Z,3.10
2018-12-17T18:33:11.068Z,3.10
2018-12-17T18:35:38.630Z,3.20
2018-12-17T18:38:06.271Z,3.20
2018-12-17T18:40:33.844Z,3.20
2018-12-17T18:43:01.436Z,3.30
2018-12-17T18:45:29.782Z,3.30
2018-12-17T18:47:57.375Z,3.30
2018-12-17T18:50:24.974Z,3.30
2018-12-17T18:52:52.512Z,3.20
2018-12-17T18:55:20.067Z,3.20
2018-12-17T18:57:47.679Z,3.30
2018-12-17T19:00:15.228Z,3.20
2018-12-17T19:02:43.737Z,3.30
2018-12-17T19:05:11.332Z,3.20
2018-12-17T19:07:38.875Z,3.30
2018-12-17T19:10:06.687Z,3.40
2018-12-17T19:12:34.279Z,3.40
2018-12-17T19:15:01.835Z,3.40
2018-12-17T19:17:29.399Z,3.30
2018-12-17T19:19:57.003Z,3.30
2018-12-17T19:22:24.543Z,3.30
2018-12-17T19:24:52.092Z,3.30
2018-12-17T19:27:19.658Z,3.30
2018-12-17T19:29:47.229Z,3.30
2018-12-17T19:32:14.859Z,3.30
2018-12-17T19:34:42.517Z,3.30
2018-12-17T19:37:10.148Z,3.30
2018-12-17T19:39:37.766Z,3.20
2018-12-17T19:42:05.419Z,3.20
2018-12-17T19:44:33.027Z,3.20
2018-12-17T19:47:00.687Z,3.20
2018-12-17T19:49:28.758Z,3.20
2018-12-17T19:51:56.963Z,3.20
2018-12-17T19:54:24.712Z,3.20
2018-12-17T19:56:52.471Z,3.20
2018-12-17T19:59:20.412Z,3.30
2018-12-17T20:01:48.048Z,3.20
2018-12-17T20:04:16.471Z,3.20
2018-12-17T20:06:45.644Z,3.30
2018-12-17T20:09:13.270Z,3.20
2018-12-17T20:11:40.836Z,3.30
2018-12-17T20:14:08.437Z,3.20
2018-12-17T20:16:36.010Z,3.30
2018-12-17T20:19:03.615Z,3.30
2018-12-17T20:21:31.205Z,3.40
2018-12-17T20:23:58.763Z,3.40
2018-12-17T20:26:26.551Z,3.40
2018-12-17T20:28:54.107Z,3.40
2018-12-17T20:31:21.800Z,3.50
2018-12-17T20:33:49.386Z,3.50
2018-12-17T20:36:16.997Z,3.50
2018-12-17T20:38:45.519Z,3.50
2018-12-17T20:41:13.409Z,3.50
2018-12-17T20:43:40.983Z,3.50
2018-12-17T20:46:08.540Z,3.60
2018-12-17T20:48:36.329Z,3.60
2018-12-17T20:51:04.044Z,3.70
2018-12-17T20:53:31.680Z,3.70
2018-12-17T20:55:59.290Z,3.70
2018-12-17T20:58:26.834Z,3.70
2018-12-17T21:00:54.376Z,3.70
2018-12-17T21:03:22.047Z,3.70
2018-12-17T21:05:50.039Z,3.70
2018-12-17T21:08:17.623Z,3.70
2018-12-17T21:10:46.078Z,3.80
2018-12-17T21:13:13.907Z,3.80
2018-12-17T21:15:41.504Z,3.80
2018-12-17T21:18:09.107Z,3.80
2018-12-17T21:20:36.663Z,3.80
2018-12-17T21:23:04.274Z,3.80
2018-12-17T21:25:31.879Z,3.90
2018-12-17T21:27:59.512Z,3.90
2018-12-17T21:30:27.059Z,3.90
2018-12-17T21:32:54.646Z,3.90
2018-12-17T21:35:22.209Z,4.00
2018-12-17T21:37:49.759Z,3.90
2018-12-17T21:40:17.346Z,3.90
2018-12-17T21:42:45.816Z,4.00
2018-12-17T21:45:13.773Z,4.00
2018-12-17T21:47:41.380Z,4.00
2018-12-17T21:50:09.369Z,4.10
2018-12-17T21:52:37.052Z,4.00
2018-12-17T21:55:05.159Z,4.00
2018-12-17T21:57:34.591Z,4.00
2018-12-17T22:00:02.317Z,4.10
2018-12-17T22:02:29.930Z,4.10
2018-12-17T22:04:57.531Z,4.10
2018-12-17T22:07:25.080Z,4.10
2018-12-17T22:09:52.662Z,4.10
2018-12-17T22:12:20.214Z,4.20
2018-12-17T22:14:47.823Z,4.20
2018-12-17T22:17:16.327Z,4.30
2018-12-17T22:19:44.896Z,4.30
2018-12-17T22:22:12.498Z,4.30
2018-12-17T22:24:40.049Z,4.40
2018-12-17T22:27:07.598Z,4.40
2018-12-17T22:29:35.231Z,4.50
2018-12-17T22:32:02.781Z,4.50
2018-12-17T22:34:30.335Z,4.60
2018-12-17T22:36:57.940Z,4.70
2018-12-17T22:39:25.491Z,4.70
2018-12-17T22:41:53.038Z,4.80
2018-12-17T22:44:20.626Z,4.80
2018-12-17T22:46:48.179Z,4.90
2018-12-17T22:49:16.673Z,4.90
2018-12-17T22:51:44.269Z,5.00
2018-12-17T22:54:11.872Z,5.00
2018-12-17T22:56:39.460Z,5.00
2018-12-17T22:59:07.019Z,5.10
2018-12-17T23:01:34.623Z,5.10
2018-12-17T23:04:02.180Z,5.10
2018-12-17T23:06:29.723Z,5.20
2018-12-17T23:09:05.011Z,5.20
2018-12-17T23:11:50.155Z,5.20
2018-12-17T23:14:29.528Z,5.30
2018-12-17T23:17:08.803Z,5.30
2018-12-17T23:19:40.513Z,5.30
2018-12-17T23:22:08.419Z,5.30
2018-12-17T23:24:36.546Z,5.30
2018-12-17T23:27:04.791Z,5.40
2018-12-17T23:29:33.218Z,5.40
2018-12-17T23:32:00.774Z,5.40
2018-12-17T23:34:28.391Z,5.40
2018-12-17T23:36:55.947Z,5.40
2018-12-17T23:39:23.499Z,5.50
2018-12-17T23:41:51.083Z,5.40
2018-12-17T23:44:18.630Z,5.50
2018-12-17T23:46:46.214Z,5.40
2018-12-17T23:49:13.775Z,5.50
2018-12-17T23:51:41.349Z,5.50
2018-12-17T23:54:09.023Z,5.50
2018-12-17T23:56:36.572Z,5.50
2018-12-17T23:59:04.229Z,5.50
